Time;durP1;ratioP1;P1;durP2;ratioP2;P2;SDS_P1;SDS_P2;PMS_P1;PMS_P2;Temp;Humidity;BMP_temperature;BMP_pressure;BME280_temperature;BME280_humidity;BME280_pressure;Samples;Min_cycle;Max_cycle;Signal;HPM_P1;HPM_P2
2022/01/17 00:01:13;;;;;;;2.33;0.97;;;-4.80;99.90;;;;;;3857382;37;20081;-66
2022/01/17 00:03:42;;;;;;;2.17;1.27;;;-4.80;99.90;;;;;;4393186;32;20539;-66
2022/01/17 00:06:08;;;;;;;1.50;1.00;;;-4.80;99.90;;;;;;4418610;32;20157;-65
2022/01/17 00:08:40;;;;;;;1.15;1.00;;;-4.90;99.90;;;;;;4405932;32;20179;-64
2022/01/17 00:11:07;;;;;;;3.58;1.50;;;-4.90;99.90;;;;;;4406138;32;20084;-66
2022/01/17 00:13:34;;;;;;;2.90;1.33;;;-4.90;99.90;;;;;;4392617;32;20180;-65
2022/01/17 00:16:09;;;;;;;2.72;1.23;;;-4.90;99.90;;;;;;4392943;32;20096;-66
2022/01/17 00:21:05;;;;;;;1.30;1.00;;;-4.90;99.90;;;;;;4418023;32;20155;-65
2022/01/17 00:23:32;;;;;;;2.05;0.90;;;-5.00;99.90;;;;;;4418251;32;20519;-65
2022/01/17 00:25:58;;;;;;;4.60;1.30;;;-5.00;99.90;;;;;;4405925;32;20062;-66
2022/01/17 00:28:25;;;;;;;2.60;1.42;;;-5.00;99.90;;;;;;4419786;32;20068;-65
2022/01/17 00:30:52;;;;;;;1.73;1.08;;;-5.00;99.90;;;;;;4394126;32;20103;-66
2022/01/17 00:33:19;;;;;;;2.15;1.25;;;-5.10;99.90;;;;;;4392905;32;20081;-65
2022/01/17 00:35:45;;;;;;;2.28;1.23;;;-5.20;99.90;;;;;;4416434;32;20093;-66
2022/01/17 00:38:12;;;;;;;2.53;1.42;;;-5.20;99.90;;;;;;4402629;32;20181;-66
2022/01/17 00:40:41;;;;;;;1.35;1.20;;;-5.20;99.90;;;;;;4402649;32;20161;-65
2022/01/17 00:43:08;;;;;;;2.30;1.40;;;-5.20;99.90;;;;;;4403924;32;20228;-65
2022/01/17 00:45:38;;;;;;;1.62;1.10;;;-5.10;99.90;;;;;;4389826;32;20058;-66
2022/01/17 00:48:04;;;;;;;2.12;1.37;;;-5.20;99.90;;;;;;4390222;32;20082;-66
2022/01/17 00:50:32;;;;;;;2.12;1.37;;;-5.30;99.90;;;;;;4390546;32;20172;-65
2022/01/17 00:53:03;;;;;;;2.15;1.20;;;-5.30;99.90;;;;;;4402563;32;20074;-64
2022/01/17 00:55:30;;;;;;;1.83;1.23;;;-5.40;99.90;;;;;;4403411;32;20086;-66
2022/01/17 00:57:57;;;;;;;1.73;1.25;;;-5.50;99.90;;;;;;4406784;32;20161;-65
2022/01/17 01:00:23;;;;;;;1.98;1.30;;;-5.50;99.90;;;;;;4402671;32;20082;-65
2022/01/17 01:02:50;;;;;;;2.20;1.35;;;-5.70;99.90;;;;;;4389988;32;20078;-64
2022/01/17 01:05:17;;;;;;;2.08;1.10;;;-5.60;99.90;;;;;;4389813;32;20084;-65
2022/01/17 01:07:45;;;;;;;1.70;1.33;;;-5.70;99.90;;;;;;4402500;32;20100;-64
2022/01/17 01:10:12;;;;;;;1.67;1.35;;;-5.80;99.90;;;;;;4402195;32;20178;-65
2022/01/17 01:12:44;;;;;;;3.28;1.40;;;-5.80;99.90;;;;;;4379601;32;20071;-65
2022/01/17 01:15:20;;;;;;;2.60;1.08;;;-5.80;99.90;;;;;;4391643;32;20528;-65
2022/01/17 01:17:58;;;;;;;2.42;1.40;;;-5.90;99.90;;;;;;4392741;32;20081;-66
2022/01/17 01:28:30;;;;;;;2.10;1.20;;;-5.90;99.90;;;;;;4392016;32;20583;-65
2022/01/17 01:30:59;;;;;;;2.80;1.33;;;-5.90;99.90;;;;;;4379607;32;20086;-65
2022/01/17 01:33:31;;;;;;;1.60;0.95;;;-5.90;99.90;;;;;;4379147;32;20613;-65
2022/01/17 01:36:06;;;;;;;1.85;1.20;;;-6.00;99.90;;;;;;4391873;32;20425;-65
2022/01/17 01:38:33;;;;;;;2.45;1.20;;;-6.00;99.90;;;;;;4367984;32;20096;-65
2022/01/17 01:40:59;;;;;;;4.12;1.50;;;-6.00;99.90;;;;;;4379316;32;20069;-66
2022/01/17 01:43:26;;;;;;;1.95;1.30;;;-6.00;99.90;;;;;;4392977;32;20176;-65
2022/01/17 01:45:59;;;;;;;2.58;1.12;;;-6.00;99.90;;;;;;4391495;32;20082;-66
2022/01/17 01:48:27;;;;;;;1.87;1.35;;;-6.10;99.90;;;;;;4391464;32;20158;-66
2022/01/17 01:50:54;;;;;;;1.75;1.20;;;-6.10;99.90;;;;;;4391893;32;20074;-65
2022/01/17 01:53:23;;;;;;;3.03;1.50;;;-6.20;99.90;;;;;;4380024;32;20085;-65
2022/01/17 01:55:53;;;;;;;1.58;1.20;;;-6.10;99.90;;;;;;4367233;32;20090;-66
2022/01/17 01:58:22;;;;;;;3.92;1.50;;;-6.30;99.90;;;;;;4393152;32;20156;-65
2022/01/17 02:00:50;;;;;;;2.60;1.50;;;-6.20;99.90;;;;;;4378718;32;20097;-65
2022/01/17 02:03:17;;;;;;;2.28;1.58;;;-6.10;99.90;;;;;;4391711;32;20097;-65
2022/01/17 02:05:44;;;;;;;2.45;1.20;;;-6.10;99.90;;;;;;4366765;32;20180;-66
2022/01/17 02:08:11;;;;;;;2.05;1.10;;;-6.20;99.90;;;;;;4379109;32;20088;-65
2022/01/17 02:10:38;;;;;;;2.58;1.58;;;-6.20;99.90;;;;;;4403762;32;20082;-66
2022/01/17 02:13:05;;;;;;;3.28;1.35;;;-6.30;99.90;;;;;;4391281;32;20082;-65
2022/01/17 02:15:32;;;;;;;3.20;1.45;;;-6.30;99.90;;;;;;4366281;32;20096;-66
2022/01/17 02:17:58;;;;;;;2.58;1.37;;;-6.40;99.90;;;;;;4378604;32;20072;-65
2022/01/17 02:20:44;;;;;;;1.62;0.95;;;-6.30;99.90;;;;;;4392466;32;20085;-66
2022/01/17 02:23:13;;;;;;;2.03;1.30;;;-6.30;99.90;;;;;;4391716;32;20109;-67
2022/01/17 02:25:40;;;;;;;2.65;1.37;;;-6.50;99.90;;;;;;4391616;32;20178;-65
2022/01/17 02:28:06;;;;;;;2.72;1.40;;;-6.50;99.90;;;;;;4378203;32;20533;-65
2022/01/17 02:30:33;;;;;;;2.40;1.27;;;-6.40;99.90;;;;;;4366235;32;20081;-65
2022/01/17 02:33:01;;;;;;;2.53;1.15;;;-6.50;99.90;;;;;;4378492;32;20093;-63
2022/01/17 02:35:29;;;;;;;1.85;1.23;;;-6.50;99.90;;;;;;4378941;32;20086;-65
2022/01/17 02:37:57;;;;;;;1.95;1.35;;;-6.50;99.90;;;;;;4378146;32;20476;-64
2022/01/17 02:40:25;;;;;;;2.03;1.25;;;-6.50;99.90;;;;;;4392361;32;20116;-65
2022/01/17 02:43:02;;;;;;;1.87;0.98;;;-6.60;99.90;;;;;;4378821;32;20064;-65
2022/01/17 02:45:36;;;;;;;2.20;1.40;;;-6.60;99.90;;;;;;4391584;32;20082;-66
2022/01/17 02:48:09;;;;;;;1.60;1.08;;;-6.40;99.90;;;;;;4391583;32;20081;-66
2022/01/17 02:50:36;;;;;;;1.33;0.85;;;-6.60;99.90;;;;;;4392486;32;20519;-65
2022/01/17 02:53:09;;;;;;;1.87;1.20;;;-6.60;99.90;;;;;;4378887;32;20162;-65
2022/01/17 02:55:36;;;;;;;2.03;1.27;;;-6.60;99.90;;;;;;4390912;32;20074;-66
2022/01/17 02:58:04;;;;;;;1.27;1.15;;;-6.60;99.90;;;;;;4390530;32;20523;-66
2022/01/17 03:00:30;;;;;;;1.85;1.40;;;-6.70;99.90;;;;;;4377683;32;20093;-64
2022/01/17 03:02:57;;;;;;;2.10;1.27;;;-6.70;99.90;;;;;;4377945;32;20077;-66
2022/01/17 03:05:24;;;;;;;2.00;1.52;;;-6.70;99.90;;;;;;4377595;32;20166;-65
2022/01/17 03:07:51;;;;;;;1.52;1.00;;;-6.70;99.90;;;;;;4378000;32;20080;-65
2022/01/17 03:10:39;;;;;;;1.87;1.12;;;-6.70;99.90;;;;;;4377814;32;20512;-65
2022/01/17 03:13:13;;;;;;;2.55;1.20;;;-6.70;99.90;;;;;;4390386;32;20081;-64
2022/01/17 03:15:40;;;;;;;2.22;1.27;;;-6.70;99.90;;;;;;4390878;32;20122;-66
2022/01/17 03:18:08;;;;;;;2.22;1.40;;;-6.70;99.90;;;;;;4389972;32;20612;-64
2022/01/17 03:20:37;;;;;;;0.75;0.73;;;-6.60;99.90;;;;;;4390850;32;20081;-66
2022/01/17 03:23:07;;;;;;;0.35;0.32;;;-6.70;99.90;;;;;;4390135;32;20092;-65
2022/01/17 03:25:34;;;;;;;2.20;1.48;;;-6.70;99.90;;;;;;4391515;32;20524;-65
2022/01/17 03:28:01;;;;;;;2.37;1.50;;;-6.60;99.90;;;;;;4377667;32;20084;-65
2022/01/17 03:30:30;;;;;;;0.17;0.17;;;-6.60;99.90;;;;;;4389891;32;20069;-66
2022/01/17 03:32:56;;;;;;;0.55;0.55;;;-6.60;99.90;;;;;;4389866;32;20441;-66
2022/01/17 03:35:23;;;;;;;1.70;1.20;;;-6.50;99.90;;;;;;4391349;32;20070;-65
2022/01/17 03:37:49;;;;;;;1.73;1.27;;;-6.50;99.90;;;;;;4377635;32;20073;-66
2022/01/17 03:40:16;;;;;;;2.30;1.15;;;-6.50;99.90;;;;;;4390196;32;20084;-64
2022/01/17 03:42:42;;;;;;;2.25;1.48;;;-6.50;99.90;;;;;;4391518;32;20077;-66
2022/01/17 03:45:10;;;;;;;3.03;1.55;;;-6.50;99.90;;;;;;4389905;32;20065;-66
2022/01/17 03:47:40;;;;;;;4.75;1.50;;;-6.50;99.90;;;;;;4377378;32;20152;-64
2022/01/17 03:50:12;;;;;;;2.67;1.50;;;-6.50;99.90;;;;;;4391316;32;20092;-65
2022/01/17 03:52:40;;;;;;;2.92;1.60;;;-6.60;99.90;;;;;;4364688;32;20158;-66
2022/01/17 03:55:14;;;;;;;3.08;1.70;;;-6.60;99.90;;;;;;4390006;32;20080;-64
2022/01/17 03:57:44;;;;;;;4.68;1.98;;;-6.60;99.90;;;;;;4389739;32;20556;-66
2022/01/17 04:00:19;;;;;;;3.33;1.75;;;-6.60;99.90;;;;;;4365420;32;20513;-65
2022/01/17 04:02:46;;;;;;;2.97;1.85;;;-6.50;99.90;;;;;;4377074;32;20522;-66
2022/01/17 04:05:14;;;;;;;3.00;1.65;;;-6.60;99.90;;;;;;4390007;32;20508;-65
2022/01/17 04:07:41;;;;;;;2.03;1.80;;;-6.60;99.90;;;;;;4389652;32;20068;-65
2022/01/17 04:10:08;;;;;;;3.87;1.90;;;-6.60;99.90;;;;;;4389492;32;20066;-66
2022/01/17 04:12:34;;;;;;;2.72;1.83;;;-6.70;99.90;;;;;;4389904;32;20072;-66
2022/01/17 04:15:01;;;;;;;3.62;1.90;;;-6.70;99.90;;;;;;4391077;32;20085;-66
2022/01/17 04:17:29;;;;;;;3.00;1.80;;;-6.70;99.90;;;;;;4389568;32;20590;-65
2022/01/17 04:20:07;;;;;;;3.75;1.70;;;-6.70;99.90;;;;;;4389637;32;20078;-66
2022/01/17 04:22:43;;;;;;;3.67;2.20;;;-6.60;99.90;;;;;;4377253;32;20453;-64
2022/01/17 04:25:10;;;;;;;2.10;1.58;;;-6.60;99.90;;;;;;4389706;32;20160;-65
2022/01/17 04:27:37;;;;;;;2.90;1.90;;;-6.50;99.90;;;;;;4391416;32;20067;-65
2022/01/17 04:30:06;;;;;;;2.87;1.83;;;-6.60;99.90;;;;;;4364677;32;20077;-65
2022/01/17 04:32:34;;;;;;;3.20;1.90;;;-6.60;99.90;;;;;;4377243;32;20096;-65
2022/01/17 04:35:01;;;;;;;2.33;1.60;;;-6.60;99.90;;;;;;4389680;32;20078;-66
2022/01/17 04:37:27;;;;;;;3.08;1.62;;;-6.70;99.90;;;;;;4389728;32;20158;-64
2022/01/17 04:39:54;;;;;;;2.45;1.77;;;-6.60;99.90;;;;;;4364517;32;20080;-65
2022/01/17 04:42:27;;;;;;;2.85;1.77;;;-6.70;99.90;;;;;;4389538;32;20074;-66
2022/01/17 04:45:17;;;;;;;2.87;1.83;;;-6.60;99.90;;;;;;4389366;32;20090;-65
2022/01/17 04:47:47;;;;;;;2.65;1.65;;;-6.60;99.90;;;;;;4369317;32;20528;-65
2022/01/17 04:50:25;;;;;;;3.25;1.90;;;-6.60;99.90;;;;;;4367621;32;20543;-65
2022/01/17 04:52:57;;;;;;;1.73;1.40;;;-6.60;99.90;;;;;;4380073;32;20093;-65
2022/01/17 04:55:26;;;;;;;1.77;1.42;;;-6.60;99.90;;;;;;4393732;32;20775;-65
2022/01/17 04:57:53;;;;;;;1.77;1.52;;;-6.60;99.90;;;;;;4379336;32;20092;-66
2022/01/17 05:00:22;;;;;;;2.40;1.67;;;-6.70;99.90;;;;;;4379339;32;20158;-64
2022/01/17 05:02:49;;;;;;;2.70;1.80;;;-6.60;99.90;;;;;;4392486;32;20077;-65
2022/01/17 05:05:16;;;;;;;2.78;1.80;;;-6.70;99.90;;;;;;4394260;32;20061;-66
2022/01/17 05:07:42;;;;;;;5.25;2.00;;;-6.60;99.90;;;;;;4392206;32;20082;-65
2022/01/17 05:10:15;;;;;;;4.12;1.80;;;-6.60;99.90;;;;;;4380417;32;20104;-65
2022/01/17 05:12:43;;;;;;;2.33;1.80;;;-6.60;99.90;;;;;;4394535;32;20158;-66
2022/01/17 05:20:38;;;;;;;3.42;1.92;;;-6.60;99.90;;;;;;4392097;32;20080;-65
2022/01/17 05:23:04;;;;;;;3.53;1.73;;;-6.60;99.90;;;;;;4392362;32;20092;-66
2022/01/17 05:25:30;;;;;;;3.30;1.80;;;-6.50;99.90;;;;;;4391651;32;20078;-64
2022/01/17 05:27:57;;;;;;;2.72;1.98;;;-6.50;99.90;;;;;;4366736;32;20175;-65
2022/01/17 05:30:25;;;;;;;2.97;1.90;;;-6.50;99.90;;;;;;4391949;32;20085;-65
2022/01/17 05:32:53;;;;;;;3.15;2.03;;;-6.50;99.90;;;;;;4379782;32;20078;-65
2022/01/17 05:35:20;;;;;;;2.60;1.80;;;-6.40;99.90;;;;;;4392641;32;20090;-67
2022/01/17 05:37:47;;;;;;;2.95;1.85;;;-6.40;99.90;;;;;;4392289;32;20085;-64
2022/01/17 05:40:16;;;;;;;3.72;2.00;;;-6.40;99.90;;;;;;4391970;32;20532;-65
2022/01/17 05:42:44;;;;;;;5.28;2.85;;;-6.30;99.90;;;;;;4379255;32;20092;-66
2022/01/17 05:45:12;;;;;;;2.62;1.80;;;-6.10;99.90;;;;;;4391428;32;20073;-65
2022/01/17 05:47:39;;;;;;;3.40;1.90;;;-6.00;99.90;;;;;;4391968;32;20084;-63
2022/01/17 05:50:07;;;;;;;4.28;2.15;;;-6.10;99.90;;;;;;4391337;32;20504;-65
2022/01/17 05:52:34;;;;;;;2.47;1.60;;;-6.10;99.90;;;;;;4378654;32;20519;-65
2022/01/17 05:55:03;;;;;;;3.53;2.00;;;-6.30;99.90;;;;;;4391576;32;20076;-65
2022/01/17 05:57:30;;;;;;;2.40;1.90;;;-6.40;99.90;;;;;;4391454;32;20159;-64
2022/01/17 05:59:56;;;;;;;2.08;1.50;;;-6.30;99.90;;;;;;4392528;32;20082;-64
2022/01/17 06:02:22;;;;;;;2.50;1.60;;;-6.40;99.90;;;;;;4379217;32;20109;-64
2022/01/17 06:04:49;;;;;;;3.17;1.50;;;-6.40;99.90;;;;;;4391515;32;20166;-64
2022/01/17 06:07:16;;;;;;;2.25;0.98;;;-6.50;99.90;;;;;;4379330;32;20086;-64
2022/01/17 07:00:25;;;;;;;2.28;1.50;;;-6.30;99.90;;;;;;4389500;32;20092;-66
2022/01/17 07:02:52;;;;;;;2.60;1.65;;;-6.30;99.90;;;;;;4391627;32;20061;-69
2022/01/17 07:05:19;;;;;;;2.60;1.70;;;-6.30;99.90;;;;;;4365790;32;20093;-68
2022/01/17 07:07:45;;;;;;;2.42;1.60;;;-6.40;99.90;;;;;;4390632;32;20135;-67
2022/01/17 07:10:12;;;;;;;2.60;2.00;;;-6.30;99.90;;;;;;4377384;32;20517;-65
2022/01/17 07:12:38;;;;;;;2.72;1.95;;;-6.40;99.90;;;;;;4365813;32;20077;-67
2022/01/17 07:15:07;;;;;;;2.17;1.52;;;-6.30;99.90;;;;;;4365385;32;20089;-67
2022/01/17 07:17:34;;;;;;;2.80;1.48;;;-6.30;99.90;;;;;;4365457;32;20077;-65
2022/01/17 07:20:01;;;;;;;4.15;2.08;;;-6.20;99.90;;;;;;4390478;32;20191;-65
2022/01/17 07:22:27;;;;;;;2.35;1.70;;;-6.20;99.90;;;;;;4377988;32;20197;-66
2022/01/17 07:24:56;;;;;;;2.72;1.90;;;-6.10;99.90;;;;;;4377731;32;20089;-66
2022/01/17 07:27:24;;;;;;;2.00;1.50;;;-6.10;99.90;;;;;;4390601;32;20149;-66
2022/01/17 07:29:51;;;;;;;2.35;1.45;;;-6.00;99.90;;;;;;4391554;32;20089;-67
2022/01/17 07:32:18;;;;;;;2.40;1.87;;;-6.00;99.90;;;;;;4378214;32;20520;-65
2022/01/17 07:34:44;;;;;;;2.30;1.62;;;-6.10;99.90;;;;;;4402041;32;20609;-65
2022/01/17 07:37:11;;;;;;;2.72;1.70;;;-6.10;99.90;;;;;;4393625;32;20070;-65
2022/01/17 07:39:38;;;;;;;3.55;2.22;;;-6.10;99.90;;;;;;4374177;32;20167;-65
2022/01/17 07:42:05;;;;;;;2.83;1.70;;;-6.20;99.90;;;;;;4361882;32;20097;-64
2022/01/17 07:44:33;;;;;;;3.25;1.87;;;-6.10;99.90;;;;;;4364660;32;20078;-66
2022/01/17 07:47:02;;;;;;;2.60;1.67;;;-6.10;99.90;;;;;;4382179;32;20532;-66
2022/01/17 07:49:29;;;;;;;2.70;1.75;;;-6.20;99.90;;;;;;4384230;32;20205;-67
2022/01/17 07:52:05;;;;;;;3.87;1.90;;;-6.20;99.90;;;;;;4391048;32;20541;-65
2022/01/17 07:54:37;;;;;;;2.17;1.42;;;-6.10;99.90;;;;;;4390010;32;20089;-66
2022/01/17 07:57:04;;;;;;;3.75;2.10;;;-6.00;99.90;;;;;;4382379;32;21095;-67
2022/01/17 07:59:31;;;;;;;2.90;1.95;;;-6.10;99.90;;;;;;4392379;32;20070;-65
2022/01/17 08:02:00;;;;;;;2.62;1.98;;;-5.90;99.90;;;;;;4376393;32;20501;-63
2022/01/17 08:04:27;;;;;;;2.35;1.70;;;-5.90;99.90;;;;;;4378171;32;20085;-64
2022/01/17 08:06:54;;;;;;;3.87;1.92;;;-5.80;99.90;;;;;;4380653;32;20526;-68
2022/01/17 08:09:30;;;;;;;2.05;1.50;;;-5.80;99.90;;;;;;4379107;32;20140;-67
2022/01/17 08:11:58;;;;;;;2.47;1.87;;;-5.70;99.90;;;;;;4379023;32;20105;-65
2022/01/17 08:14:25;;;;;;;2.33;1.70;;;-5.70;99.90;;;;;;4385625;32;20086;-68
2022/01/17 08:16:52;;;;;;;2.25;1.65;;;-5.70;99.90;;;;;;4382773;32;20070;-69
2022/01/17 08:19:23;;;;;;;2.75;1.70;;;-5.60;99.90;;;;;;4384782;32;20169;-65
2022/01/17 08:21:52;;;;;;;2.65;1.73;;;-5.50;99.90;;;;;;4371393;32;20071;-66
2022/01/17 08:24:19;;;;;;;2.10;1.60;;;-5.40;99.90;;;;;;4383608;32;20525;-65
2022/01/17 08:26:50;;;;;;;2.00;1.70;;;-5.50;99.90;;;;;;4384476;32;20137;-65
2022/01/17 08:29:17;;;;;;;3.10;1.90;;;-5.40;99.90;;;;;;4388379;32;20485;-68
2022/01/17 08:31:46;;;;;;;2.85;1.90;;;-5.60;99.90;;;;;;4382317;32;20244;-71
2022/01/17 08:34:14;;;;;;;2.60;1.92;;;-5.40;99.90;;;;;;4374400;32;20086;-72
2022/01/17 08:36:40;;;;;;;2.78;1.58;;;-5.70;99.90;;;;;;4371015;32;20073;-76
2022/01/17 08:39:07;;;;;;;3.95;2.00;;;-5.50;99.90;;;;;;4382271;32;20174;-68
2022/01/17 08:41:34;;;;;;;3.92;1.95;;;-5.50;99.90;;;;;;4374509;32;20153;-72
2022/01/17 08:44:01;;;;;;;2.62;2.10;;;-5.50;99.90;;;;;;4384074;32;20488;-71
2022/01/17 08:46:27;;;;;;;3.30;2.15;;;-5.40;99.90;;;;;;4371821;32;20151;-69
2022/01/17 08:48:54;;;;;;;2.40;1.70;;;-5.40;99.90;;;;;;4393201;32;20090;-69
2022/01/17 08:51:20;;;;;;;2.90;1.92;;;-5.40;99.90;;;;;;4382837;32;20058;-71
2022/01/17 08:53:47;;;;;;;2.92;1.95;;;-5.20;99.90;;;;;;4379283;32;20101;-71
2022/01/17 08:56:14;;;;;;;2.62;1.90;;;-5.10;99.90;;;;;;4385433;32;20153;-72
2022/01/17 08:58:40;;;;;;;3.12;1.80;;;-5.10;99.90;;;;;;4391279;32;20165;-72
2022/01/17 09:01:08;;;;;;;2.53;2.00;;;-4.90;99.90;;;;;;4371550;32;20089;-72
2022/01/17 09:03:36;;;;;;;2.25;1.80;;;-5.10;99.90;;;;;;4367364;32;20506;-70
2022/01/17 09:06:02;;;;;;;2.62;1.70;;;-5.10;99.90;;;;;;4368893;32;20128;-71
2022/01/17 09:08:29;;;;;;;4.70;1.75;;;-5.20;99.90;;;;;;4358954;32;20062;-66
2022/01/17 09:10:57;;;;;;;3.67;2.00;;;-5.10;99.90;;;;;;4396431;32;20062;-68
2022/01/17 09:13:25;;;;;;;2.75;1.73;;;-5.00;99.90;;;;;;4369297;32;20489;-66
2022/01/17 09:15:53;;;;;;;2.15;1.70;;;-4.80;99.90;;;;;;4388907;32;20508;-70
2022/01/17 09:18:20;;;;;;;3.95;2.08;;;-4.90;99.90;;;;;;4377069;32;20086;-68
2022/01/17 09:20:47;;;;;;;3.35;2.10;;;-4.80;99.90;;;;;;4384634;32;20105;-69
2022/01/17 09:23:14;;;;;;;3.55;2.30;;;-4.90;99.90;;;;;;4366893;32;20492;-71
2022/01/17 09:25:41;;;;;;;2.17;1.70;;;-4.80;99.90;;;;;;4370706;32;20070;-69
2022/01/17 09:28:08;;;;;;;2.80;2.20;;;-4.80;99.90;;;;;;4392372;32;20073;-71
2022/01/17 09:30:34;;;;;;;2.95;2.22;;;-4.80;99.90;;;;;;4362251;32;20182;-68
2022/01/17 09:33:03;;;;;;;2.58;1.70;;;-4.90;99.90;;;;;;4377835;32;20077;-69
2022/01/17 09:35:31;;;;;;;1.87;1.70;;;-4.90;99.90;;;;;;4375002;32;20203;-65
2022/01/17 09:37:57;;;;;;;2.80;2.10;;;-5.10;99.90;;;;;;4392051;32;20098;-66
2022/01/17 09:40:25;;;;;;;6.20;2.00;;;-5.10;99.90;;;;;;4378972;32;20069;-65
2022/01/17 09:42:51;;;;;;;4.35;2.00;;;-5.00;99.90;;;;;;4389657;32;20081;-68
2022/01/17 09:45:21;;;;;;;2.35;1.73;;;-5.10;99.90;;;;;;4378035;32;20169;-69
2022/01/17 09:47:48;;;;;;;3.03;1.90;;;-5.20;99.90;;;;;;4375349;32;20068;-65
2022/01/17 09:50:22;;;;;;;2.60;1.98;;;-5.20;99.90;;;;;;4374864;32;20157;-71
2022/01/17 09:52:53;;;;;;;2.92;1.62;;;-5.10;99.90;;;;;;4370483;32;20152;-72
2022/01/17 09:55:24;;;;;;;4.45;1.98;;;-5.10;99.90;;;;;;4376045;32;20521;-69
2022/01/17 09:58:01;;;;;;;3.20;2.00;;;-5.10;99.90;;;;;;4363026;32;20500;-69
2022/01/17 10:00:31;;;;;;;3.42;1.60;;;-5.00;99.90;;;;;;4372194;32;20114;-72
2022/01/17 10:03:05;;;;;;;2.65;1.92;;;-5.00;99.90;;;;;;4361662;32;20571;-74
2022/01/17 10:05:34;;;;;;;2.42;1.70;;;-5.00;99.90;;;;;;4362209;32;20081;-73
2022/01/17 10:08:07;;;;;;;3.45;1.80;;;-5.00;99.90;;;;;;4368600;32;20110;-69
2022/01/17 10:10:56;;;;;;;3.28;2.10;;;-5.00;99.90;;;;;;4359350;32;20433;-69
2022/01/17 10:13:33;;;;;;;4.70;2.37;;;-4.80;99.90;;;;;;4356141;32;20160;-68
2022/01/17 10:16:14;;;;;;;3.12;2.05;;;-4.90;99.90;;;;;;4357305;32;20527;-77
2022/01/17 10:19:02;;;;;;;2.25;1.67;;;-4.80;99.90;;;;;;4352440;32;20093;-69
2022/01/17 10:21:42;;;;;;;3.28;1.87;;;-4.90;99.90;;;;;;4365101;32;20077;-69
2022/01/17 10:24:28;;;;;;;2.62;1.85;;;-4.90;99.90;;;;;;4336539;32;20082;-71
2022/01/17 10:27:22;;;;;;;3.20;2.03;;;-5.00;99.90;;;;;;4342526;32;20109;-68
2022/01/17 10:30:19;;;;;;;3.80;2.70;;;-4.90;99.90;;;;;;4355956;32;20100;-67
